ABB weather

Asaba International Airport
Asaba, Delta, Nigeria

Public forecast

Using degrees Celsius for public forecast. Weather courtesy of forecast.io.

Closest aviation weather report (METAR) to Asaba International Airport

Closest report is Akanu Ibiam International Airport, 55.9 nm (103.5 km) ENE. Retrieved 2019/12/15 02:00 UTC (1 minute ago):

DNEN 150200Z 32005KT 5000 HZ FEW009 21/17 Q1013 NOSIG

Closest aviation forecast (TAF) to Asaba International Airport

Forecast is more than 6 hours old.

Closest forecast is Akanu Ibiam International Airport, 55.9 nm (103.5 km) ENE. Retrieved 2019/12/14 18:27 UTC (8 hours ago):

TAF TAF DNEN 141700Z 1418/1524 16005KT 6000 FEW011 TEMPO 1503/1508 3000 HZ BECMG 1509/1511 BKN013